Time;durP1;ratioP1;P1;durP2;ratioP2;P2;SDS_P1;SDS_P2;PMS_P1;PMS_P2;Temp;Humidity;BMP_temperature;BMP_pressure;BME280_temperature;BME280_humidity;BME280_pressure;Samples;Min_cycle;Max_cycle;Signal;HPM_P1;HPM_P2
2021/05/19 00:01:23;;;;;;;1.80;1.30;;;13.10;99.90;;;;;;5074261;28;20201;-64
2021/05/19 00:03:50;;;;;;;3.17;1.30;;;13.10;99.90;;;;;;5073797;28;20733;-64
2021/05/19 00:06:16;;;;;;;3.40;1.23;;;13.10;99.90;;;;;;5073805;28;20228;-64
2021/05/19 00:08:43;;;;;;;2.37;1.27;;;13.10;99.90;;;;;;5073556;28;20212;-63
2021/05/19 00:11:09;;;;;;;2.30;1.40;;;13.10;99.90;;;;;;5073877;28;20306;-64
2021/05/19 00:13:36;;;;;;;2.03;1.30;;;13.00;99.90;;;;;;5073671;28;20224;-62
2021/05/19 00:16:06;;;;;;;3.30;1.60;;;13.10;99.90;;;;;;5073688;28;20248;-64
2021/05/19 00:18:33;;;;;;;1.60;1.30;;;13.10;99.90;;;;;;5073376;28;20312;-64
2021/05/19 00:20:59;;;;;;;1.30;1.10;;;13.10;99.90;;;;;;5073450;28;20731;-63
2021/05/19 00:23:25;;;;;;;1.53;1.20;;;13.10;99.90;;;;;;5073373;28;20209;-64
2021/05/19 00:25:51;;;;;;;1.50;1.40;;;13.20;99.90;;;;;;5073840;28;20208;-64
2021/05/19 00:28:18;;;;;;;2.43;1.37;;;13.20;99.90;;;;;;5073353;28;20290;-64
2021/05/19 00:30:46;;;;;;;1.80;1.27;;;13.30;99.90;;;;;;5073569;28;20209;-62
2021/05/19 00:33:13;;;;;;;3.00;1.63;;;13.30;99.90;;;;;;5074050;28;20282;-64
2021/05/19 00:35:39;;;;;;;1.90;1.43;;;13.30;99.90;;;;;;5073812;28;20205;-64
2021/05/19 00:38:05;;;;;;;4.30;1.50;;;13.30;99.90;;;;;;5073169;28;20710;-64
2021/05/19 00:40:32;;;;;;;2.90;1.50;;;13.30;99.90;;;;;;5073673;28;20257;-62
2021/05/19 00:42:58;;;;;;;2.70;1.43;;;13.30;99.90;;;;;;5073409;28;20201;-64
2021/05/19 00:45:25;;;;;;;2.90;1.37;;;13.30;99.90;;;;;;5073401;28;20398;-62
2021/05/19 00:47:51;;;;;;;1.20;1.10;;;13.40;99.90;;;;;;5073545;28;20225;-63
2021/05/19 00:50:21;;;;;;;2.10;1.60;;;13.30;99.90;;;;;;5073273;28;20212;-64
2021/05/19 00:52:47;;;;;;;1.40;1.30;;;13.30;99.90;;;;;;5073098;28;20213;-63
2021/05/19 00:55:14;;;;;;;2.90;1.50;;;13.20;99.90;;;;;;5073081;28;20201;-62
2021/05/19 00:57:41;;;;;;;2.10;1.60;;;13.20;99.90;;;;;;5073249;28;20224;-64
2021/05/19 01:00:11;;;;;;;3.27;1.63;;;13.20;99.90;;;;;;5072987;28;20204;-62
2021/05/19 01:02:37;;;;;;;2.23;1.70;;;13.20;99.90;;;;;;5073078;28;20201;-63
2021/05/19 01:05:05;;;;;;;2.70;1.50;;;13.20;99.90;;;;;;5072746;28;20213;-63
2021/05/19 01:07:35;;;;;;;3.00;1.60;;;13.20;99.90;;;;;;5072900;28;20596;-63
2021/05/19 01:10:01;;;;;;;2.83;2.00;;;13.20;99.90;;;;;;5072818;28;20581;-64
2021/05/19 01:12:27;;;;;;;4.87;1.83;;;13.20;99.90;;;;;;5072786;28;20197;-64
2021/05/19 01:14:54;;;;;;;3.00;1.80;;;13.20;99.90;;;;;;5072296;28;20209;-63
2021/05/19 01:17:21;;;;;;;2.93;1.70;;;13.20;99.90;;;;;;5072272;28;20232;-63
2021/05/19 01:19:49;;;;;;;5.07;1.80;;;13.10;99.90;;;;;;5072107;28;20243;-64
2021/05/19 01:22:23;;;;;;;3.03;1.70;;;13.10;99.90;;;;;;5072208;28;20201;-63
2021/05/19 01:24:50;;;;;;;2.40;1.50;;;13.10;99.90;;;;;;5072247;28;20686;-62
2021/05/19 01:27:17;;;;;;;4.40;1.97;;;13.20;99.90;;;;;;5072238;28;20273;-63
2021/05/19 01:29:47;;;;;;;2.37;1.97;;;13.10;99.90;;;;;;5072114;28;20201;-61
2021/05/19 01:32:13;;;;;;;2.90;1.80;;;13.10;99.90;;;;;;5071937;28;20209;-63
2021/05/19 01:34:40;;;;;;;4.00;2.83;;;13.10;99.90;;;;;;5072242;28;20216;-64
2021/05/19 01:37:07;;;;;;;3.63;1.90;;;13.10;99.90;;;;;;5072046;28;20244;-64
2021/05/19 01:39:36;;;;;;;6.90;1.93;;;13.10;99.90;;;;;;5072202;28;20236;-63
2021/05/19 01:42:02;;;;;;;4.77;1.73;;;13.00;99.90;;;;;;5072366;28;20695;-63
2021/05/19 01:44:28;;;;;;;2.57;1.77;;;12.90;99.90;;;;;;5072168;28;20201;-64
2021/05/19 01:46:55;;;;;;;2.73;1.60;;;13.00;99.90;;;;;;5072011;28;20707;-64
2021/05/19 01:49:22;;;;;;;3.47;1.93;;;12.90;99.90;;;;;;5071142;28;20204;-64
2021/05/19 01:51:50;;;;;;;2.17;1.60;;;13.00;99.90;;;;;;5071968;28;20205;-64
2021/05/19 01:54:18;;;;;;;5.40;1.70;;;13.00;99.90;;;;;;5072013;28;20209;-64
2021/05/19 01:56:45;;;;;;;2.00;1.80;;;12.90;99.90;;;;;;5071543;28;20225;-63
2021/05/19 01:59:11;;;;;;;2.60;1.80;;;13.00;99.90;;;;;;5071457;28;20227;-64
2021/05/19 02:01:37;;;;;;;2.83;1.67;;;12.90;99.90;;;;;;5072077;28;20213;-64
2021/05/19 02:04:06;;;;;;;1.90;1.70;;;12.90;99.90;;;;;;5071479;28;20691;-64
2021/05/19 02:06:45;;;;;;;3.10;1.70;;;12.80;99.90;;;;;;5071526;28;20225;-64
2021/05/19 02:09:13;;;;;;;4.77;2.20;;;12.80;99.90;;;;;;5071477;28;20219;-64
2021/05/19 02:11:39;;;;;;;5.10;2.20;;;12.70;99.90;;;;;;5071445;28;20201;-63
2021/05/19 02:14:06;;;;;;;2.03;1.63;;;12.70;99.90;;;;;;5071656;28;20212;-64
2021/05/19 02:16:33;;;;;;;1.77;1.60;;;12.70;99.90;;;;;;5071329;28;20630;-64
2021/05/19 02:18:59;;;;;;;2.53;1.70;;;12.70;99.90;;;;;;5071194;28;20231;-64
2021/05/19 02:21:25;;;;;;;3.37;1.90;;;12.60;99.90;;;;;;5071482;28;20204;-63
2021/05/19 02:23:52;;;;;;;3.83;2.10;;;12.60;99.90;;;;;;5071110;28;20204;-64
2021/05/19 02:26:18;;;;;;;4.03;2.00;;;12.60;99.90;;;;;;5071189;28;20633;-64
2021/05/19 02:28:45;;;;;;;3.80;1.90;;;12.60;99.90;;;;;;5071316;28;20201;-63
2021/05/19 02:31:13;;;;;;;3.43;2.20;;;12.60;99.90;;;;;;5071267;28;20300;-62
2021/05/19 02:33:39;;;;;;;1.93;1.73;;;12.60;99.90;;;;;;5071240;28;20209;-63
2021/05/19 02:36:06;;;;;;;2.80;2.33;;;12.60;99.90;;;;;;5070975;28;20273;-63
2021/05/19 02:38:34;;;;;;;3.50;2.30;;;12.60;99.90;;;;;;5071219;28;20229;-64
2021/05/19 02:41:00;;;;;;;3.93;2.10;;;12.60;99.90;;;;;;5071484;28;20205;-64
2021/05/19 02:43:27;;;;;;;10.30;2.60;;;12.60;99.90;;;;;;5071359;28;20212;-64
2021/05/19 02:45:53;;;;;;;6.03;1.93;;;12.60;99.90;;;;;;5071020;28;20219;-64
2021/05/19 02:48:20;;;;;;;2.10;1.80;;;12.70;99.90;;;;;;5070844;28;20227;-64
2021/05/19 02:50:46;;;;;;;2.33;2.10;;;12.70;99.90;;;;;;5070982;28;20216;-63
2021/05/19 02:53:12;;;;;;;2.47;2.00;;;12.70;99.90;;;;;;5070797;28;20216;-64
2021/05/19 02:55:39;;;;;;;3.83;2.13;;;12.70;99.90;;;;;;5070802;28;20684;-64
2021/05/19 02:58:05;;;;;;;4.23;2.10;;;12.70;99.90;;;;;;5070901;28;20228;-64
2021/05/19 03:00:31;;;;;;;3.57;2.20;;;12.60;99.90;;;;;;5073428;28;20231;-64
2021/05/19 03:02:58;;;;;;;4.67;2.10;;;12.70;99.90;;;;;;5075119;28;20333;-64
2021/05/19 03:05:25;;;;;;;5.53;3.57;;;12.70;99.90;;;;;;5074992;28;20687;-64
2021/05/19 03:07:51;;;;;;;3.67;2.60;;;12.70;99.90;;;;;;5074676;28;20640;-63
2021/05/19 03:10:17;;;;;;;4.80;2.73;;;12.80;99.90;;;;;;5075080;28;20204;-62
2021/05/19 03:12:44;;;;;;;4.37;2.60;;;12.80;99.90;;;;;;5075034;28;20208;-63
2021/05/19 03:15:11;;;;;;;4.20;2.50;;;12.80;99.90;;;;;;5074675;28;20205;-64
2021/05/19 03:17:38;;;;;;;4.63;2.40;;;12.80;99.90;;;;;;5074761;28;20593;-64
2021/05/19 03:20:06;;;;;;;2.97;2.20;;;12.80;99.90;;;;;;5074757;28;20224;-64
2021/05/19 03:22:33;;;;;;;3.43;2.73;;;12.80;99.90;;;;;;5075678;28;20580;-63
2021/05/19 03:24:59;;;;;;;4.00;2.60;;;12.80;99.90;;;;;;5074876;28;20677;-65
2021/05/19 03:27:25;;;;;;;3.23;2.30;;;12.80;99.90;;;;;;5074831;28;20220;-65
2021/05/19 03:29:53;;;;;;;5.73;2.60;;;12.80;99.90;;;;;;5075007;28;20201;-64
2021/05/19 03:32:19;;;;;;;6.77;2.47;;;12.80;99.90;;;;;;5074736;28;20254;-64
2021/05/19 03:34:45;;;;;;;5.80;2.80;;;12.80;99.90;;;;;;5074394;28;20676;-64
2021/05/19 03:37:11;;;;;;;3.77;2.70;;;12.90;99.90;;;;;;5075013;28;20233;-64
2021/05/19 03:39:39;;;;;;;4.27;2.63;;;12.90;99.90;;;;;;5074077;28;20220;-64
2021/05/19 03:42:05;;;;;;;3.23;2.50;;;12.90;99.90;;;;;;5074562;28;20212;-64
2021/05/19 03:44:32;;;;;;;4.83;3.20;;;12.90;99.90;;;;;;5074345;28;20212;-64
2021/05/19 03:46:58;;;;;;;5.77;3.20;;;12.90;99.90;;;;;;5074168;28;20225;-63
2021/05/19 03:49:27;;;;;;;2.83;2.27;;;12.90;99.90;;;;;;5073918;28;20205;-64
2021/05/19 03:51:53;;;;;;;4.43;2.40;;;12.90;99.90;;;;;;5074254;28;20230;-63
2021/05/19 03:54:20;;;;;;;3.47;2.93;;;12.90;99.90;;;;;;5074415;28;20212;-65
2021/05/19 03:56:49;;;;;;;4.87;2.60;;;12.90;99.90;;;;;;5074306;28;20236;-65
2021/05/19 03:59:16;;;;;;;4.00;2.60;;;12.80;99.90;;;;;;5073754;28;20697;-64
2021/05/19 04:01:42;;;;;;;5.10;2.60;;;12.90;99.90;;;;;;5074342;28;20205;-64
2021/05/19 04:04:08;;;;;;;4.53;3.10;;;12.90;99.90;;;;;;5073727;28;20223;-64
2021/05/19 04:06:35;;;;;;;5.60;3.97;;;12.90;99.90;;;;;;5074069;28;20221;-64
2021/05/19 04:09:01;;;;;;;4.27;2.80;;;12.90;99.90;;;;;;5073872;28;20201;-65
2021/05/19 04:11:27;;;;;;;7.27;3.07;;;13.00;99.90;;;;;;5072856;28;20216;-65
2021/05/19 04:13:54;;;;;;;3.83;3.17;;;13.00;99.90;;;;;;5073600;28;20216;-64
2021/05/19 04:16:20;;;;;;;7.97;3.70;;;13.00;99.90;;;;;;5073553;28;20228;-65
2021/05/19 04:18:46;;;;;;;7.00;2.67;;;13.00;99.90;;;;;;5073412;28;20225;-65
2021/05/19 04:21:13;;;;;;;3.13;2.20;;;13.00;99.90;;;;;;5073541;28;20811;-64
2021/05/19 04:23:39;;;;;;;3.27;2.53;;;13.00;99.90;;;;;;5073726;28;20204;-64
2021/05/19 04:26:07;;;;;;;6.10;2.37;;;13.10;99.90;;;;;;5073574;28;20270;-64
2021/05/19 04:28:33;;;;;;;5.53;3.17;;;13.10;99.90;;;;;;5073356;28;20220;-65
2021/05/19 04:31:01;;;;;;;3.17;2.50;;;13.10;99.90;;;;;;5073598;28;20211;-65
2021/05/19 04:33:27;;;;;;;3.17;2.70;;;13.20;99.90;;;;;;5073400;28;20254;-64
2021/05/19 04:35:53;;;;;;;3.60;2.57;;;13.20;99.90;;;;;;5073347;28;20220;-65
2021/05/19 04:38:20;;;;;;;3.97;3.13;;;13.20;99.90;;;;;;5073735;28;20225;-64
2021/05/19 04:40:46;;;;;;;4.77;2.70;;;13.20;99.90;;;;;;5073765;28;20209;-64
2021/05/19 04:43:13;;;;;;;5.43;3.50;;;13.20;99.90;;;;;;5073360;28;20212;-63
2021/05/19 04:45:40;;;;;;;7.80;4.87;;;13.20;99.90;;;;;;5072995;28;20215;-63
2021/05/19 04:48:07;;;;;;;2.60;2.40;;;13.20;99.90;;;;;;5073269;28;20315;-64
2021/05/19 04:50:35;;;;;;;8.23;5.30;;;13.20;99.90;;;;;;5073305;28;20216;-64
2021/05/19 04:53:01;;;;;;;4.40;2.87;;;13.30;99.90;;;;;;5073398;28;20712;-65
2021/05/19 04:55:27;;;;;;;3.73;2.50;;;13.30;99.90;;;;;;5073489;28;20209;-65
2021/05/19 04:57:53;;;;;;;4.67;2.70;;;13.30;99.90;;;;;;5072973;28;20240;-62
2021/05/19 05:00:20;;;;;;;6.87;3.20;;;13.30;99.90;;;;;;5073537;28;20580;-64
2021/05/19 05:02:46;;;;;;;6.10;3.30;;;13.30;99.90;;;;;;5073236;28;20243;-64
2021/05/19 05:05:14;;;;;;;4.47;2.70;;;13.30;99.90;;;;;;5073283;28;20216;-64
2021/05/19 05:07:40;;;;;;;6.00;2.63;;;13.30;99.90;;;;;;5073099;28;20229;-64
2021/05/19 05:10:08;;;;;;;6.00;3.30;;;13.40;99.90;;;;;;5073882;28;20205;-64
2021/05/19 05:12:35;;;;;;;4.70;2.77;;;13.40;99.90;;;;;;5072919;28;20205;-64
2021/05/19 05:15:02;;;;;;;5.63;2.93;;;13.50;99.90;;;;;;5072265;28;20212;-63
2021/05/19 05:17:28;;;;;;;2.97;2.67;;;13.60;99.90;;;;;;5072674;28;20615;-63
2021/05/19 05:19:54;;;;;;;3.27;2.67;;;13.70;99.90;;;;;;5072444;28;20225;-64
2021/05/19 05:22:21;;;;;;;4.57;2.90;;;13.70;99.90;;;;;;5071901;28;20205;-63
2021/05/19 05:24:47;;;;;;;5.33;2.93;;;13.70;99.90;;;;;;5072623;28;20209;-65
2021/05/19 05:27:14;;;;;;;3.60;2.97;;;13.80;99.90;;;;;;5072615;28;20232;-63
2021/05/19 05:29:40;;;;;;;4.20;3.10;;;13.80;99.90;;;;;;5072246;28;20239;-62
2021/05/19 05:32:07;;;;;;;4.37;2.67;;;13.80;99.90;;;;;;5072772;28;20312;-63
2021/05/19 05:34:33;;;;;;;4.63;2.80;;;13.80;99.90;;;;;;5072702;28;20236;-63
2021/05/19 05:37:00;;;;;;;3.50;2.70;;;13.80;99.90;;;;;;5072567;28;20240;-63
2021/05/19 05:39:27;;;;;;;3.33;2.50;;;13.80;99.90;;;;;;5073652;28;20266;-63
2021/05/19 05:41:53;;;;;;;3.37;2.50;;;13.90;99.90;;;;;;5073716;28;20216;-64
2021/05/19 05:44:19;;;;;;;7.00;2.60;;;13.90;99.90;;;;;;5074026;28;20527;-65
2021/05/19 05:46:45;;;;;;;2.93;2.70;;;13.90;99.90;;;;;;5073263;28;20225;-65
2021/05/19 05:49:11;;;;;;;6.30;2.63;;;14.00;99.90;;;;;;5072490;28;20208;-65
2021/05/19 05:51:38;;;;;;;3.90;2.80;;;14.00;99.90;;;;;;5072272;28;20201;-65
2021/05/19 05:54:05;;;;;;;3.90;3.30;;;14.00;99.90;;;;;;5072075;28;20692;-65
2021/05/19 05:56:33;;;;;;;3.93;2.60;;;14.10;99.90;;;;;;5072002;28;20225;-64
2021/05/19 05:58:59;;;;;;;3.80;3.00;;;14.20;99.90;;;;;;5072309;28;20282;-65
2021/05/19 06:01:25;;;;;;;4.90;2.60;;;14.30;99.90;;;;;;5071943;28;20209;-63
2021/05/19 06:03:52;;;;;;;5.53;2.67;;;14.40;99.90;;;;;;5071928;28;20209;-65
2021/05/19 06:06:18;;;;;;;2.97;2.47;;;14.50;99.90;;;;;;5071860;28;20234;-63
2021/05/19 06:08:44;;;;;;;2.80;2.50;;;14.50;99.90;;;;;;5071815;28;20698;-65
2021/05/19 06:11:10;;;;;;;2.60;2.40;;;14.60;99.90;;;;;;5071483;28;20209;-64
2021/05/19 06:13:37;;;;;;;3.50;2.40;;;14.90;99.90;;;;;;5071486;28;20611;-64
2021/05/19 06:16:04;;;;;;;3.37;2.20;;;15.20;99.90;;;;;;5071870;28;20212;-65
2021/05/19 06:18:30;;;;;;;6.97;2.37;;;15.60;99.90;;;;;;5071929;28;20631;-65
2021/05/19 06:20:56;;;;;;;4.53;2.10;;;16.30;99.90;;;;;;5071973;28;20713;-65
2021/05/19 06:23:23;;;;;;;4.10;2.43;;;17.20;99.90;;;;;;5071293;28;20242;-62
2021/05/19 06:25:49;;;;;;;5.87;2.37;;;17.70;99.90;;;;;;5071356;28;20295;-63
2021/05/19 06:28:15;;;;;;;6.30;4.77;;;18.00;99.40;;;;;;5071403;28;20212;-64
2021/05/19 06:30:42;;;;;;;4.57;2.33;;;18.70;98.80;;;;;;5072204;28;20212;-64
2021/05/19 06:33:08;;;;;;;7.10;2.30;;;19.40;96.80;;;;;;5072010;28;20633;-65
2021/05/19 06:35:34;;;;;;;3.97;2.20;;;19.90;95.40;;;;;;5070941;28;20201;-65
2021/05/19 06:38:01;;;;;;;3.05;1.92;;;20.00;94.50;;;;;;5071329;28;20716;-65
2021/05/19 06:40:27;;;;;;;2.42;1.95;;;20.10;93.60;;;;;;5072394;28;20302;-65
2021/05/19 06:42:53;;;;;;;4.20;2.20;;;19.90;93.30;;;;;;5071899;28;20204;-65
2021/05/19 06:45:19;;;;;;;3.53;2.20;;;19.70;93.50;;;;;;5071981;28;20212;-63
2021/05/19 06:47:46;;;;;;;3.25;2.00;;;19.70;93.30;;;;;;5071648;28;20225;-65
2021/05/19 06:50:13;;;;;;;3.60;2.50;;;19.60;93.10;;;;;;5071765;28;20205;-65
2021/05/19 06:52:39;;;;;;;3.25;2.17;;;19.70;92.90;;;;;;5072109;28;20443;-63
2021/05/19 06:55:07;;;;;;;4.03;2.28;;;19.50;92.80;;;;;;5071965;28;20212;-63
2021/05/19 06:57:35;;;;;;;3.23;2.20;;;19.20;92.90;;;;;;5072268;28;20230;-64
2021/05/19 07:00:02;;;;;;;4.80;2.70;;;19.10;93.10;;;;;;5072824;28;20225;-65
2021/05/19 07:02:28;;;;;;;3.73;2.50;;;18.90;93.50;;;;;;5073204;28;20215;-65
2021/05/19 07:04:55;;;;;;;5.97;2.60;;;18.80;93.60;;;;;;5072859;28;20204;-63
2021/05/19 07:07:21;;;;;;;5.00;2.83;;;18.70;93.60;;;;;;5072446;28;20224;-65
2021/05/19 07:09:47;;;;;;;4.97;2.40;;;18.70;93.90;;;;;;5072997;28;20200;-63
2021/05/19 07:12:14;;;;;;;3.87;2.57;;;18.50;94.20;;;;;;5073644;28;20213;-65
2021/05/19 07:14:47;;;;;;;3.37;2.60;;;18.30;93.90;;;;;;5072687;28;20208;-64
2021/05/19 07:17:14;;;;;;;3.57;2.50;;;18.20;94.10;;;;;;5072539;28;20235;-64
2021/05/19 07:19:40;;;;;;;2.78;2.33;;;18.50;94.40;;;;;;5073577;28;20252;-63
2021/05/19 07:22:07;;;;;;;2.90;2.20;;;20.00;92.80;;;;;;5074447;28;20209;-65
2021/05/19 07:24:33;;;;;;;4.13;2.40;;;21.80;88.30;;;;;;5073678;28;20213;-65
2021/05/19 07:26:59;;;;;;;2.78;2.00;;;22.40;85.60;;;;;;5072418;28;20220;-65
2021/05/19 07:29:26;;;;;;;2.28;1.88;;;23.20;83.60;;;;;;5071561;28;20216;-65
2021/05/19 07:31:52;;;;;;;3.60;1.88;;;25.10;76.60;;;;;;5071241;28;20205;-64
2021/05/19 07:34:18;;;;;;;2.58;2.08;;;25.50;72.50;;;;;;5070820;28;20612;-63
2021/05/19 07:36:44;;;;;;;4.45;2.10;;;24.90;73.10;;;;;;5070535;28;20240;-64
2021/05/19 07:39:13;;;;;;;5.65;2.00;;;24.10;74.50;;;;;;5070570;28;20220;-65
2021/05/19 07:41:40;;;;;;;4.15;2.20;;;23.50;76.20;;;;;;5071013;28;20251;-65
2021/05/19 07:44:06;;;;;;;4.15;2.40;;;22.70;77.00;;;;;;5070695;28;20201;-65
2021/05/19 07:46:33;;;;;;;3.97;2.00;;;22.10;79.30;;;;;;5072728;28;20233;-64
2021/05/19 07:49:01;;;;;;;3.10;1.95;;;23.40;77.00;;;;;;5074202;28;20247;-65
2021/05/19 07:51:27;;;;;;;2.80;1.65;;;26.20;70.80;;;;;;5074322;28;20615;-64
2021/05/19 07:53:54;;;;;;;3.15;2.10;;;29.10;60.50;;;;;;5074133;28;20216;-65
2021/05/19 07:56:27;;;;;;;3.60;2.00;;;31.20;54.20;;;;;;5073982;28;20225;-64
2021/05/19 07:58:58;;;;;;;2.60;1.83;;;33.10;50.00;;;;;;5074408;28;20233;-65
2021/05/19 08:01:42;;;;;;;2.95;1.67;;;34.00;46.60;;;;;;5074512;28;20303;-65
2021/05/19 08:04:09;;;;;;;3.35;1.60;;;32.90;46.40;;;;;;5074200;28;20254;-65
2021/05/19 08:06:36;;;;;;;2.85;2.35;;;30.50;49.70;;;;;;5074054;28;20238;-65
2021/05/19 08:09:04;;;;;;;2.60;1.63;;;28.20;52.50;;;;;;5073808;28;20197;-65
2021/05/19 08:11:32;;;;;;;2.35;1.65;;;26.60;55.50;;;;;;5074014;28;20213;-64
2021/05/19 08:13:58;;;;;;;5.53;2.33;;;25.20;58.30;;;;;;5073910;28;20211;-65
2021/05/19 08:16:25;;;;;;;9.25;2.70;;;23.70;61.60;;;;;;5073890;28;20278;-65
2021/05/19 08:18:51;;;;;;;4.65;2.13;;;22.70;64.60;;;;;;5073534;28;20864;-64
2021/05/19 08:21:17;;;;;;;3.45;2.10;;;22.00;67.50;;;;;;5074034;28;20201;-64
2021/05/19 08:23:43;;;;;;;4.57;2.30;;;21.60;70.20;;;;;;5073523;28;20219;-64
2021/05/19 08:26:09;;;;;;;3.42;2.25;;;22.00;69.30;;;;;;5073186;28;20232;-65
2021/05/19 08:28:37;;;;;;;3.40;2.08;;;22.80;67.90;;;;;;5073553;28;20209;-65
2021/05/19 08:31:04;;;;;;;2.88;2.33;;;23.70;65.30;;;;;;5073491;28;20201;-65
2021/05/19 08:33:31;;;;;;;3.45;2.05;;;24.00;65.10;;;;;;5073485;28;20201;-65
2021/05/19 08:35:57;;;;;;;3.33;1.70;;;24.10;64.50;;;;;;5073288;28;20246;-64
2021/05/19 08:38:23;;;;;;;3.30;2.28;;;24.00;63.60;;;;;;5073361;28;20209;-64
2021/05/19 08:40:50;;;;;;;6.97;2.60;;;23.90;65.00;;;;;;5073127;28;20496;-64
2021/05/19 08:43:16;;;;;;;3.90;2.25;;;23.60;65.90;;;;;;5073514;28;20205;-64
2021/05/19 08:45:44;;;;;;;4.82;2.35;;;23.30;66.70;;;;;;5073977;28;20218;-64
2021/05/19 08:48:11;;;;;;;4.05;3.08;;;23.20;67.50;;;;;;5074521;28;20235;-64
2021/05/19 08:50:38;;;;;;;6.80;3.00;;;23.10;68.20;;;;;;5074287;28;20224;-64
2021/05/19 08:53:07;;;;;;;3.58;2.28;;;23.20;66.80;;;;;;5073353;28;20495;-64
2021/05/19 08:55:34;;;;;;;6.97;2.40;;;22.80;66.60;;;;;;5072803;28;20540;-64
2021/05/19 08:58:00;;;;;;;4.60;2.53;;;22.50;67.90;;;;;;5071918;28;20228;-64
2021/05/19 09:00:28;;;;;;;3.90;2.20;;;22.30;68.80;;;;;;5072961;28;20221;-64
2021/05/19 09:03:06;;;;;;;5.30;2.55;;;22.00;68.50;;;;;;5073031;28;20205;-64
2021/05/19 09:05:33;;;;;;;4.53;3.63;;;21.80;70.10;;;;;;5072670;28;20299;-64
2021/05/19 09:08:04;;;;;;;4.85;2.58;;;21.60;69.60;;;;;;5072542;28;20255;-64
2021/05/19 09:10:30;;;;;;;2.33;2.13;;;21.60;70.40;;;;;;5072697;28;20212;-64
2021/05/19 09:12:57;;;;;;;2.65;2.13;;;21.70;69.90;;;;;;5072919;28;20209;-64
2021/05/19 09:15:24;;;;;;;5.63;2.58;;;21.80;70.80;;;;;;5072401;28;20213;-64
2021/05/19 09:18:00;;;;;;;4.18;2.03;;;21.90;71.20;;;;;;5072385;28;20256;-64
2021/05/19 09:20:27;;;;;;;3.17;2.28;;;21.90;71.30;;;;;;5072385;28;20238;-64
2021/05/19 09:23:04;;;;;;;4.15;2.20;;;21.80;71.00;;;;;;5072496;28;20216;-65
2021/05/19 09:25:31;;;;;;;3.20;2.25;;;21.60;71.50;;;;;;5072532;28;20205;-64
2021/05/19 09:27:59;;;;;;;3.63;2.15;;;21.20;72.10;;;;;;5072390;28;20239;-64
2021/05/19 09:30:37;;;;;;;4.13;1.90;;;20.90;71.90;;;;;;5072198;28;20203;-64
2021/05/19 09:33:11;;;;;;;2.00;1.80;;;20.70;73.20;;;;;;5072549;28;20205;-64
2021/05/19 09:35:38;;;;;;;5.20;2.28;;;20.90;72.00;;;;;;5072173;28;20209;-65
2021/05/19 09:38:24;;;;;;;5.63;2.03;;;20.90;72.30;;;;;;5094182;22;20454;-61
2021/05/19 09:41:16;;;;;;;4.25;2.10;;;20.70;72.10;;;;;;5051834;28;20229;-62
2021/05/19 09:43:42;;;;;;;4.18;2.92;;;20.30;72.60;;;;;;5051505;28;20394;-59
2021/05/19 09:46:16;;;;;;;4.55;2.30;;;20.20;74.20;;;;;;5051909;28;20202;-61
2021/05/19 09:48:42;;;;;;;4.70;2.45;;;20.10;75.30;;;;;;5031867;28;20221;-61
2021/05/19 09:51:09;;;;;;;4.85;2.45;;;20.20;75.40;;;;;;5031752;28;20709;-62
2021/05/19 09:53:36;;;;;;;3.42;2.00;;;20.40;74.70;;;;;;5031541;28;20217;-61
2021/05/19 09:56:07;;;;;;;2.67;1.92;;;20.20;74.70;;;;;;5031470;28;20217;-61
2021/05/19 09:58:36;;;;;;;6.22;1.80;;;20.20;74.20;;;;;;5031376;28;20230;-64
2021/05/19 10:01:03;;;;;;;3.80;1.85;;;20.00;72.70;;;;;;5031568;28;20689;-62
2021/05/19 10:03:29;;;;;;;5.38;1.73;;;19.90;72.60;;;;;;5031206;28;20206;-62
2021/05/19 10:06:02;;;;;;;2.78;1.38;;;19.70;70.80;;;;;;5031445;28;20210;-61
2021/05/19 10:08:29;;;;;;;1.90;1.10;;;19.90;70.50;;;;;;5031260;28;20230;-60
2021/05/19 10:11:00;;;;;;;4.82;1.27;;;19.80;67.30;;;;;;5030562;28;20317;-65
2021/05/19 10:13:29;;;;;;;2.60;1.30;;;19.90;67.40;;;;;;5031281;28;20206;-61
2021/05/19 10:15:56;;;;;;;3.13;1.10;;;20.00;67.50;;;;;;5031296;28;20213;-60
2021/05/19 10:18:24;;;;;;;2.20;1.17;;;20.30;66.90;;;;;;5030988;28;20237;-64
2021/05/19 10:20:55;;;;;;;3.00;1.50;;;20.30;65.50;;;;;;5031274;28;20291;-61
2021/05/19 10:23:36;;;;;;;4.20;1.27;;;20.30;67.00;;;;;;5031721;28;20657;-61
2021/05/19 10:26:08;;;;;;;0.82;0.68;;;20.30;63.90;;;;;;5032005;28;20214;-60
2021/05/19 10:28:42;;;;;;;0.80;0.53;;;20.30;59.70;;;;;;5031445;28;20238;-61
2021/05/19 10:31:26;;;;;;;1.15;0.98;;;20.20;54.30;;;;;;5031303;28;20208;-60
2021/05/19 10:33:55;;;;;;;4.88;1.45;;;20.10;51.90;;;;;;5030898;28;20267;-60
2021/05/19 10:36:48;;;;;;;1.25;0.93;;;19.90;53.60;;;;;;5031024;28;20210;-61
2021/05/19 10:39:26;;;;;;;0.93;0.77;;;19.90;57.40;;;;;;5030801;28;20226;-60
2021/05/19 10:41:54;;;;;;;2.03;1.02;;;19.80;57.80;;;;;;5030798;28;20268;-60
2021/05/19 10:44:23;;;;;;;0.47;0.47;;;19.80;57.10;;;;;;5030942;28;20206;-61
2021/05/19 10:46:56;;;;;;;2.85;0.70;;;19.90;57.00;;;;;;5031057;28;20226;-61
2021/05/19 10:49:23;;;;;;;4.10;1.10;;;19.90;57.90;;;;;;5030769;28;20213;-62
2021/05/19 10:52:17;;;;;;;3.00;0.60;;;19.90;58.10;;;;;;5030976;28;20206;-60
2021/05/19 10:57:51;;;;;;;7.93;1.52;;;19.90;57.30;;;;;;5031147;28;20336;-62
2021/05/19 11:00:21;;;;;;;1.52;1.00;;;19.90;59.30;;;;;;5031187;28;20229;-62
2021/05/19 11:03:13;;;;;;;1.70;0.90;;;20.00;58.90;;;;;;5030648;28;20299;-60
2021/05/19 11:06:11;;;;;;;2.80;0.88;;;20.00;59.00;;;;;;5030515;28;20213;-60
2021/05/19 11:08:38;;;;;;;1.92;1.08;;;20.10;59.10;;;;;;5030538;28;20214;-59
2021/05/19 11:11:27;;;;;;;1.45;0.95;;;20.00;58.80;;;;;;5030613;28;20210;-62
2021/05/19 11:13:56;;;;;;;1.35;1.00;;;19.90;57.90;;;;;;5030303;28;20688;-61
2021/05/19 11:16:26;;;;;;;1.27;0.88;;;19.90;58.80;;;;;;5030458;28;20240;-63
2021/05/19 11:19:10;;;;;;;2.58;1.00;;;19.90;60.10;;;;;;5030522;28;20211;-61
2021/05/19 11:21:37;;;;;;;2.17;1.00;;;19.90;62.20;;;;;;5032657;28;20311;-64
2021/05/19 11:24:08;;;;;;;3.47;1.45;;;19.90;60.60;;;;;;5034457;28;20206;-63
2021/05/19 11:26:43;;;;;;;2.13;1.20;;;19.80;64.10;;;;;;5034160;28;20266;-60
2021/05/19 11:29:11;;;;;;;1.25;0.77;;;20.00;62.80;;;;;;5034111;28;20206;-62
2021/05/19 11:31:40;;;;;;;1.83;0.90;;;20.10;59.00;;;;;;5034280;28;20260;-64
2021/05/19 11:34:08;;;;;;;3.58;0.98;;;20.10;58.90;;;;;;5033593;28;20210;-64
2021/05/19 11:36:39;;;;;;;3.55;1.10;;;19.90;55.60;;;;;;5034175;28;20292;-61
2021/05/19 11:39:22;;;;;;;2.85;1.70;;;19.70;54.90;;;;;;5033956;28;20321;-61
2021/05/19 11:41:49;;;;;;;3.10;0.80;;;19.80;54.20;;;;;;5034145;28;20210;-62
2021/05/19 11:44:32;;;;;;;2.83;0.90;;;19.90;55.70;;;;;;5033971;28;20210;-64
2021/05/19 11:46:58;;;;;;;1.38;0.75;;;19.90;55.60;;;;;;5034273;28;20233;-61
2021/05/19 11:49:25;;;;;;;0.85;0.60;;;20.10;53.80;;;;;;5034191;28;20210;-61
2021/05/19 11:51:51;;;;;;;1.27;0.68;;;20.20;54.10;;;;;;5034000;28;20210;-62
2021/05/19 11:54:17;;;;;;;4.40;0.75;;;20.30;52.50;;;;;;5033756;28;20236;-63
2021/05/19 11:56:45;;;;;;;0.57;0.55;;;20.20;52.90;;;;;;5033893;28;20229;-65
2021/05/19 11:59:21;;;;;;;1.77;0.73;;;20.20;52.20;;;;;;5033460;28;20318;-63
2021/05/19 12:02:02;;;;;;;4.88;1.23;;;20.10;53.60;;;;;;5034082;28;20256;-63
2021/05/19 12:04:30;;;;;;;1.58;1.00;;;20.00;55.20;;;;;;5033470;28;20206;-65
2021/05/19 12:06:59;;;;;;;6.03;1.35;;;20.00;56.30;;;;;;5033586;28;20725;-61
2021/05/19 12:09:28;;;;;;;1.75;0.80;;;20.10;56.00;;;;;;5033585;28;20645;-64
2021/05/19 12:11:56;;;;;;;2.33;1.30;;;20.20;55.10;;;;;;5033722;28;20272;-61
2021/05/19 12:14:23;;;;;;;1.48;0.90;;;20.30;56.00;;;;;;5033487;28;20704;-63
2021/05/19 12:16:50;;;;;;;1.60;0.80;;;20.40;54.50;;;;;;5033379;28;20714;-63
2021/05/19 12:19:21;;;;;;;1.92;1.00;;;20.50;53.30;;;;;;5033207;28;20222;-62
2021/05/19 12:21:49;;;;;;;2.38;0.68;;;20.50;53.70;;;;;;5033680;28;20206;-62
2021/05/19 12:24:18;;;;;;;1.42;0.50;;;20.60;53.90;;;;;;5033093;28;20210;-63
2021/05/19 12:26:46;;;;;;;1.25;0.60;;;20.70;51.80;;;;;;5033481;28;20241;-63
2021/05/19 12:29:33;;;;;;;1.55;0.85;;;20.80;52.80;;;;;;5033479;28;20581;-63
2021/05/19 12:32:17;;;;;;;1.52;0.80;;;21.00;49.20;;;;;;5033140;28;20213;-63
2021/05/19 12:34:46;;;;;;;0.88;0.50;;;21.30;48.40;;;;;;5033165;28;20576;-62
2021/05/19 12:37:13;;;;;;;4.22;2.55;;;21.20;47.40;;;;;;5033413;28;20257;-62
2021/05/19 12:39:43;;;;;;;1.75;0.80;;;21.10;50.70;;;;;;5033668;28;20222;-63
2021/05/19 12:42:15;;;;;;;3.28;1.30;;;21.00;49.60;;;;;;5033496;28;20214;-63
2021/05/19 12:44:42;;;;;;;1.33;0.60;;;20.90;51.60;;;;;;5033056;28;20301;-63
2021/05/19 12:47:12;;;;;;;2.05;0.85;;;20.80;50.10;;;;;;5032998;28;20226;-62
2021/05/19 12:49:41;;;;;;;3.65;0.80;;;20.80;51.30;;;;;;5032986;28;20209;-63
2021/05/19 12:52:09;;;;;;;2.22;0.90;;;20.90;51.20;;;;;;5033134;28;20206;-63
2021/05/19 12:54:37;;;;;;;1.20;0.60;;;21.10;47.60;;;;;;5033153;28;20210;-62
2021/05/19 12:57:07;;;;;;;5.47;3.92;;;21.20;47.80;;;;;;5032644;28;20308;-63